Owensboro Daviess County Airport
KOWB : rendu visible

Aérodrome :











RETROUVEZ-NOUS SUR...

 
LOGIN :

S'inscrire | Disclaimer

   EN    FR    IT 

 









Légende :    VFR   VFR Marginal   IFR   IFR Intensif   IFR Très Intensif
Visi : 
Plafond : 
>= 8 km
>= 3000ft
5 à 8 km
1000 à 3000 ft
1500m à 5 km
500 à 1000 ft
800 à 1500m
200 à 500 ft
< 800m
< 200 ft
Symboles :   Orages  Brouillard  Fortes neiges  Fortes précipitations  Vent > 20 kt






- Altitude de l'aérodrome : 407 ft
- Code IATA : OWB


KOWB - Owensboro Daviess County

DERNIER METAR :
  • 251556Z 17009KT 10SM CLR 30/21 A3003 RMK AO2 SLP166 T03000206

METARs EXPIRÉS :
  • 251456Z 17008KT 10SM CLR 28/21 A3003 RMK AO2 SLP164 T02830206 50003
  • 251356Z 16009KT 10SM CLR 27/21 A3003 RMK AO2 SLP164 T02670206

TAF KOWB
Valide du 25 à 12h jusqu'au 26 à 12h UTC


251124Z 2512/2612 16007KT P6SM SCT150
FM251700 18008KT P6SM SCT045
FM260000 14007KT P6SM BKN150
FIR KZID / Amérique du Nord



MET'MAP, la Météo Aéronautique d'un coup d'oeil ! - Copyright ORBIFLY Décembre 2007 - Disclaimer

ORBIFLY MET'MAP TEAM :

Programmation & Développement : Alexandra Zaïnal
Sur une idée originale de : Baudouin d'Aumeries
Assistance à la programmation : Marc-Olivier Méhu
Soutien technique & logistique : Manuel Goepfert

Contact : metmap@orbifly.com




SOURCES & CREDITS :

   NOAA       Earth
Advisory